createdAt,value
2022-12-25T00:01:26.342Z,84.70
2022-12-25T00:03:53.580Z,84.80
2022-12-25T00:06:20.624Z,84.70
2022-12-25T00:08:47.448Z,84.80
2022-12-25T00:11:17.558Z,84.80
2022-12-25T00:13:44.614Z,84.90
2022-12-25T00:16:20.557Z,84.70
2022-12-25T00:18:48.238Z,84.80
2022-12-25T00:21:15.657Z,85.00
2022-12-25T00:23:43.243Z,85.00
2022-12-25T00:26:13.044Z,85.10
2022-12-25T00:28:40.217Z,85.00
2022-12-25T00:31:15.978Z,85.00
2022-12-25T00:33:45.209Z,85.10
2022-12-25T00:36:13.971Z,85.10
2022-12-25T00:38:41.970Z,85.10
2022-12-25T00:41:15.097Z,85.10
2022-12-25T00:43:42.528Z,85.10
2022-12-25T00:46:13.680Z,85.00
2022-12-25T00:48:47.616Z,85.10
2022-12-25T00:51:15.063Z,85.10
2022-12-25T00:53:42.181Z,85.30
2022-12-25T00:56:10.818Z,85.40
2022-12-25T00:58:46.444Z,85.30
2022-12-25T01:01:14.256Z,85.40
2022-12-25T01:03:41.432Z,85.40
2022-12-25T01:06:13.136Z,85.40
2022-12-25T01:09:04.801Z,85.40
2022-12-25T01:11:34.435Z,85.30
2022-12-25T01:14:01.884Z,85.20
2022-12-25T01:16:29.546Z,85.30
2022-12-25T01:18:57.117Z,85.30
2022-12-25T01:21:27.112Z,85.40
2022-12-25T01:23:54.795Z,85.40
2022-12-25T01:26:24.147Z,85.40
2022-12-25T01:28:51.977Z,85.40
2022-12-25T01:31:22.393Z,85.30
2022-12-25T01:33:50.722Z,85.20
2022-12-25T01:36:23.593Z,85.20
2022-12-25T01:38:51.526Z,85.10
2022-12-25T01:41:23.360Z,85.00
2022-12-25T01:44:16.667Z,85.00
2022-12-25T01:46:46.626Z,84.80
2022-12-25T01:49:27.365Z,84.60
2022-12-25T01:52:12.417Z,84.50
2022-12-25T01:54:47.929Z,84.40
2022-12-25T01:57:30.531Z,84.40
2022-12-25T01:59:59.181Z,84.40
2022-12-25T02:02:27.630Z,84.40
2022-12-25T02:05:01.593Z,84.20
2022-12-25T02:07:32.783Z,84.50
2022-12-25T02:10:02.282Z,84.50
2022-12-25T02:12:35.399Z,84.50
2022-12-25T02:15:13.682Z,84.50
2022-12-25T02:17:56.169Z,84.50
2022-12-25T02:20:32.967Z,84.50
2022-12-25T02:23:27.119Z,84.50
2022-12-25T02:26:19.311Z,84.50
2022-12-25T02:28:58.180Z,84.60
2022-12-25T02:31:46.080Z,84.70
2022-12-25T02:34:31.826Z,84.60
2022-12-25T02:37:12.999Z,84.80
2022-12-25T02:39:58.214Z,84.80
2022-12-25T02:43:12.971Z,84.70
2022-12-25T02:46:07.930Z,85.00
2022-12-25T02:48:59.323Z,85.20
2022-12-25T02:51:50.786Z,85.30
2022-12-25T02:54:41.432Z,85.30
2022-12-25T02:57:30.400Z,85.30
2022-12-25T03:00:21.065Z,85.30
2022-12-25T03:03:07.781Z,85.30
2022-12-25T03:05:58.318Z,85.20
2022-12-25T03:08:35.140Z,85.20
2022-12-25T03:11:27.176Z,85.30
2022-12-25T03:14:27.558Z,85.40
2022-12-25T03:16:58.769Z,85.40
2022-12-25T03:19:56.301Z,85.00
2022-12-25T03:22:48.843Z,84.80
2022-12-25T03:25:38.526Z,84.60
2022-12-25T03:28:07.008Z,84.60
2022-12-25T03:31:08.482Z,84.50
2022-12-25T03:34:26.956Z,84.70
2022-12-25T03:37:36.630Z,84.60
2022-12-25T03:40:38.147Z,84.70
2022-12-25T03:43:43.605Z,84.70
2022-12-25T03:46:34.337Z,84.80
2022-12-25T03:49:28.017Z,84.90
2022-12-25T03:52:17.546Z,84.90
2022-12-25T03:55:05.601Z,85.10
2022-12-25T03:57:53.668Z,85.00
2022-12-25T04:00:39.275Z,85.00
2022-12-25T04:03:25.213Z,85.10
2022-12-25T04:06:10.717Z,85.10
2022-12-25T04:08:56.506Z,85.00
2022-12-25T04:11:42.098Z,85.00
2022-12-25T04:14:27.715Z,85.10
2022-12-25T04:17:13.129Z,85.00
2022-12-25T04:20:02.004Z,85.10
2022-12-25T04:22:47.505Z,85.10
2022-12-25T04:25:33.209Z,85.10
2022-12-25T04:28:23.258Z,85.10
2022-12-25T04:31:08.962Z,85.10
2022-12-25T04:33:54.393Z,85.00
2022-12-25T04:36:24.999Z,85.00
2022-12-25T04:38:54.481Z,85.00
2022-12-25T04:41:21.770Z,85.00
2022-12-25T04:43:49.226Z,84.90
2022-12-25T04:46:19.787Z,84.90
2022-12-25T04:48:47.398Z,85.00
2022-12-25T04:51:23.499Z,85.10
2022-12-25T04:53:52.777Z,85.10
2022-12-25T04:56:23.386Z,85.00
2022-12-25T04:58:59.780Z,85.00
2022-12-25T05:01:27.524Z,85.00
2022-12-25T05:03:55.043Z,85.00
2022-12-25T05:06:28.619Z,85.00
2022-12-25T05:08:59.340Z,85.00
2022-12-25T05:11:30.004Z,84.90
2022-12-25T05:13:58.139Z,84.90
2022-12-25T05:16:26.746Z,84.90
2022-12-25T05:18:54.111Z,84.90
2022-12-25T05:21:22.388Z,85.00
2022-12-25T05:23:53.274Z,85.00
2022-12-25T05:26:23.721Z,84.90
2022-12-25T05:28:51.592Z,84.90
2022-12-25T05:31:19.459Z,84.90
2022-12-25T05:33:49.618Z,84.90
2022-12-25T05:36:16.899Z,85.00
2022-12-25T05:38:44.571Z,84.90
2022-12-25T05:41:11.969Z,84.90
2022-12-25T05:43:39.001Z,84.90
2022-12-25T05:46:08.087Z,84.90
2022-12-25T05:48:37.245Z,84.90
2022-12-25T05:51:11.428Z,84.90
2022-12-25T05:53:40.375Z,84.90
2022-12-25T05:56:09.406Z,84.80
2022-12-25T05:58:38.997Z,84.90
2022-12-25T06:01:18.983Z,84.80
2022-12-25T06:03:48.573Z,84.90
2022-12-25T06:06:29.218Z,85.00
2022-12-25T06:08:56.671Z,85.00
2022-12-25T06:11:23.944Z,85.10
2022-12-25T06:13:52.751Z,85.30
2022-12-25T06:16:20.486Z,85.40
2022-12-25T06:18:55.160Z,85.50
2022-12-25T06:21:22.470Z,85.60
2022-12-25T06:23:49.807Z,85.60
2022-12-25T06:26:19.717Z,85.60
2022-12-25T06:28:49.457Z,85.60
2022-12-25T06:31:19.844Z,85.60
2022-12-25T06:33:47.303Z,85.50
2022-12-25T06:36:20.482Z,85.40
2022-12-25T06:38:47.860Z,85.50
2022-12-25T06:41:17.824Z,85.40
2022-12-25T06:43:49.664Z,85.30
2022-12-25T06:46:17.467Z,85.30
2022-12-25T06:48:53.218Z,85.30
2022-12-25T06:51:23.078Z,85.20
2022-12-25T06:53:54.436Z,85.20
2022-12-25T06:56:26.967Z,85.10
2022-12-25T06:59:02.408Z,85.10
2022-12-25T07:01:41.234Z,85.10
2022-12-25T07:04:17.612Z,85.00
2022-12-25T07:06:47.286Z,85.00
2022-12-25T07:09:17.445Z,84.90
2022-12-25T07:11:44.604Z,84.90
2022-12-25T07:14:24.233Z,84.90
2022-12-25T07:16:52.116Z,84.80
2022-12-25T07:19:19.428Z,84.80
2022-12-25T07:21:47.302Z,84.80
2022-12-25T07:24:24.055Z,84.70
2022-12-25T07:27:01.085Z,84.70
2022-12-25T07:29:28.196Z,84.70
2022-12-25T07:31:55.231Z,84.70
2022-12-25T07:34:23.085Z,84.60
2022-12-25T07:36:50.404Z,84.70
2022-12-25T07:39:17.465Z,84.80
2022-12-25T07:41:45.047Z,84.80
2022-12-25T07:44:15.429Z,84.70
2022-12-25T07:46:43.099Z,84.70
2022-12-25T07:49:12.030Z,84.70
2022-12-25T07:51:39.221Z,84.50
2022-12-25T07:54:06.269Z,84.40
2022-12-25T07:56:37.136Z,84.50
2022-12-25T07:59:04.458Z,84.50
2022-12-25T08:01:31.509Z,84.70
2022-12-25T08:04:01.201Z,84.70
2022-12-25T08:06:36.285Z,84.70
2022-12-25T08:09:21.571Z,84.60
2022-12-25T08:11:48.599Z,84.50
2022-12-25T08:14:15.844Z,84.40
2022-12-25T08:16:42.943Z,84.40
2022-12-25T08:19:10.311Z,84.50
2022-12-25T08:21:38.206Z,84.50
2022-12-25T08:24:05.292Z,84.40
2022-12-25T08:26:34.734Z,84.50
2022-12-25T08:29:01.986Z,84.30
2022-12-25T08:31:29.888Z,84.40
2022-12-25T08:33:58.734Z,84.30
2022-12-25T08:36:25.779Z,84.20
2022-12-25T08:38:57.059Z,84.20
2022-12-25T08:41:27.936Z,84.30
2022-12-25T08:43:55.182Z,84.40
2022-12-25T08:46:24.914Z,84.40
2022-12-25T08:48:52.092Z,84.40
2022-12-25T08:51:24.050Z,84.40
2022-12-25T08:53:59.751Z,84.30
2022-12-25T08:56:27.908Z,84.20
2022-12-25T08:58:54.810Z,84.30
2022-12-25T09:01:22.296Z,84.30
2022-12-25T09:03:52.158Z,84.30
2022-12-25T09:06:19.142Z,84.20
2022-12-25T09:08:49.539Z,84.20
2022-12-25T09:11:18.370Z,84.30
2022-12-25T09:13:45.315Z,84.30
2022-12-25T09:16:15.987Z,84.30
2022-12-25T09:18:42.916Z,84.30
2022-12-25T09:21:12.922Z,84.30
2022-12-25T09:23:40.913Z,84.40
2022-12-25T09:26:10.877Z,84.30
2022-12-25T09:28:37.816Z,84.40
2022-12-25T09:31:04.947Z,84.30
2022-12-25T09:33:31.966Z,84.20
2022-12-25T09:36:01.766Z,84.20
2022-12-25T09:38:29.632Z,84.20
2022-12-25T09:41:11.806Z,84.10
2022-12-25T09:43:42.873Z,84.10
2022-12-25T09:46:15.854Z,84.10
2022-12-25T09:48:51.263Z,84.30
2022-12-25T09:51:19.019Z,84.30
2022-12-25T09:53:53.150Z,84.20
2022-12-25T09:56:27.273Z,84.20
2022-12-25T09:58:55.098Z,84.20
2022-12-25T10:01:40.753Z,84.20
2022-12-25T10:04:42.242Z,84.20
2022-12-25T10:07:23.678Z,84.10
2022-12-25T10:10:18.765Z,84.10
2022-12-25T10:13:08.058Z,84.20
2022-12-25T10:15:53.590Z,84.20
2022-12-25T10:18:47.615Z,84.20
2022-12-25T10:21:18.692Z,84.20
2022-12-25T10:23:59.347Z,84.30
2022-12-25T10:26:27.721Z,84.30
2022-12-25T10:29:18.026Z,84.30
2022-12-25T10:31:47.427Z,84.30
2022-12-25T10:34:16.295Z,84.30
2022-12-25T10:36:47.286Z,84.30
2022-12-25T10:39:24.957Z,84.30
2022-12-25T10:42:19.963Z,84.40
2022-12-25T10:45:06.260Z,84.30
2022-12-25T10:47:38.820Z,84.30
2022-12-25T10:50:20.716Z,84.20
2022-12-25T10:53:05.997Z,84.30
2022-12-25T10:55:37.143Z,84.30
2022-12-25T10:58:06.538Z,84.30
2022-12-25T11:00:36.920Z,84.30
2022-12-25T11:03:04.741Z,84.30
2022-12-25T11:05:35.892Z,84.40
2022-12-25T11:08:04.642Z,84.40
2022-12-25T11:10:33.958Z,84.40
2022-12-25T11:13:02.844Z,84.30
2022-12-25T11:15:44.851Z,84.40
2022-12-25T11:18:35.452Z,84.40
2022-12-25T11:21:17.909Z,84.40
2022-12-25T11:23:47.554Z,84.50
2022-12-25T11:26:16.195Z,84.60
2022-12-25T11:28:45.466Z,84.70
2022-12-25T11:31:21.370Z,84.50
2022-12-25T11:34:16.726Z,84.50
2022-12-25T11:36:50.003Z,84.60
2022-12-25T11:39:25.508Z,84.90
2022-12-25T11:42:03.446Z,84.90
2022-12-25T11:44:45.893Z,84.70
2022-12-25T11:47:25.504Z,84.60
2022-12-25T11:50:01.144Z,84.50
2022-12-25T11:52:34.067Z,84.30
2022-12-25T11:55:27.927Z,84.30
2022-12-25T11:58:03.408Z,84.30
2022-12-25T12:00:35.869Z,84.60
2022-12-25T12:03:12.555Z,84.50
2022-12-25T12:06:01.235Z,84.50
2022-12-25T12:08:31.867Z,84.60
2022-12-25T12:11:25.357Z,84.70
2022-12-25T12:14:11.336Z,84.50
2022-12-25T12:16:39.033Z,84.50
2022-12-25T12:19:26.660Z,84.40
2022-12-25T12:22:00.737Z,84.50
2022-12-25T12:24:41.457Z,84.40
2022-12-25T12:27:35.588Z,84.60
2022-12-25T12:30:06.657Z,84.50
2022-12-25T12:32:41.853Z,84.50
2022-12-25T12:35:31.785Z,84.40
2022-12-25T12:38:14.780Z,84.30
2022-12-25T12:41:03.166Z,84.30
2022-12-25T12:43:41.391Z,84.30
2022-12-25T12:46:30.028Z,84.30
2022-12-25T12:49:20.284Z,84.30
2022-12-25T12:52:21.440Z,84.30
2022-12-25T12:55:01.016Z,84.30
2022-12-25T12:57:32.937Z,84.50
2022-12-25T13:00:08.566Z,84.50
2022-12-25T13:02:53.333Z,84.50
2022-12-25T13:05:34.219Z,84.70
2022-12-25T13:08:10.918Z,84.60
2022-12-25T13:10:43.929Z,84.70
2022-12-25T13:13:34.078Z,84.60
2022-12-25T13:16:01.240Z,84.60
2022-12-25T13:18:28.486Z,84.50
2022-12-25T13:21:05.797Z,84.50
2022-12-25T13:23:37.862Z,84.50
2022-12-25T13:26:17.243Z,84.50
2022-12-25T13:28:47.587Z,84.50
2022-12-25T13:31:21.243Z,84.50
2022-12-25T13:33:58.522Z,84.50
2022-12-25T13:36:35.342Z,84.60
2022-12-25T13:39:03.017Z,84.60
2022-12-25T13:42:04.207Z,84.80
2022-12-25T13:45:09.780Z,84.60
2022-12-25T13:47:43.245Z,84.60
2022-12-25T13:50:30.846Z,84.70
2022-12-25T13:53:09.842Z,84.70
2022-12-25T13:55:37.298Z,84.60
2022-12-25T13:58:07.453Z,84.60
2022-12-25T14:00:56.988Z,84.60
2022-12-25T14:03:41.748Z,84.60
2022-12-25T14:06:24.611Z,84.50
2022-12-25T14:08:53.261Z,84.60
2022-12-25T14:11:23.912Z,84.60
2022-12-25T14:14:07.634Z,84.40
2022-12-25T14:16:35.437Z,84.50
2022-12-25T14:19:30.341Z,84.50
2022-12-25T14:22:16.824Z,84.60
2022-12-25T14:24:49.397Z,84.50
2022-12-25T14:27:26.347Z,84.60
2022-12-25T14:29:59.594Z,84.60
2022-12-25T14:32:30.613Z,84.60
2022-12-25T14:35:03.796Z,84.60
2022-12-25T14:37:32.955Z,84.60
2022-12-25T14:40:20.463Z,84.50
2022-12-25T14:43:03.468Z,84.60
2022-12-25T14:45:40.949Z,84.50
2022-12-25T14:48:37.514Z,84.60
2022-12-25T14:51:08.445Z,84.50
2022-12-25T14:53:40.781Z,84.60
2022-12-25T14:56:12.326Z,84.60
2022-12-25T14:58:43.691Z,84.50
2022-12-25T15:01:27.137Z,84.60
2022-12-25T15:04:06.172Z,84.70
2022-12-25T15:06:35.307Z,84.70
2022-12-25T15:09:09.293Z,84.80
2022-12-25T15:11:36.550Z,84.70
2022-12-25T15:14:05.951Z,84.60
2022-12-25T15:16:47.433Z,84.60
2022-12-25T15:19:26.494Z,84.70
2022-12-25T15:21:56.818Z,84.70
2022-12-25T15:24:24.130Z,84.80
2022-12-25T15:26:53.449Z,84.70
2022-12-25T15:29:44.500Z,84.70
2022-12-25T15:32:15.952Z,84.70
2022-12-25T15:34:47.393Z,84.90
2022-12-25T15:37:14.813Z,84.80
2022-12-25T15:39:42.015Z,84.80
2022-12-25T15:42:19.876Z,84.70
2022-12-25T15:44:46.934Z,84.80
2022-12-25T15:47:16.219Z,84.80
2022-12-25T15:49:44.101Z,84.80
2022-12-25T15:52:14.839Z,84.80
2022-12-25T15:54:43.279Z,84.90
2022-12-25T15:57:30.851Z,84.80
2022-12-25T15:59:59.298Z,84.60
2022-12-25T16:02:29.562Z,84.70
2022-12-25T16:04:57.088Z,84.70
2022-12-25T16:07:26.056Z,84.70
2022-12-25T16:09:53.172Z,84.60
2022-12-25T16:12:20.379Z,84.60
2022-12-25T16:14:47.384Z,84.60
2022-12-25T16:17:15.790Z,84.60
2022-12-25T16:19:46.543Z,84.60
2022-12-25T16:22:21.922Z,84.60
2022-12-25T16:24:50.216Z,84.70
2022-12-25T16:27:17.233Z,84.60
2022-12-25T16:29:44.752Z,84.60
2022-12-25T16:32:16.100Z,84.60
2022-12-25T16:34:45.880Z,84.60
2022-12-25T16:37:12.879Z,84.60
2022-12-25T16:39:40.234Z,84.50
2022-12-25T16:42:07.272Z,84.30
2022-12-25T16:44:37.439Z,84.50
2022-12-25T16:47:07.475Z,84.50
2022-12-25T16:49:35.195Z,84.50
2022-12-25T16:52:02.593Z,84.50
2022-12-25T16:54:37.290Z,84.50
2022-12-25T16:57:04.528Z,84.40
2022-12-25T16:59:33.486Z,84.50
2022-12-25T17:02:01.041Z,84.40
2022-12-25T17:04:28.628Z,84.50
2022-12-25T17:06:55.878Z,84.40
2022-12-25T17:09:23.086Z,84.30
2022-12-25T17:11:50.458Z,84.40
2022-12-25T17:14:17.357Z,84.50
2022-12-25T17:16:44.907Z,84.60
2022-12-25T17:19:20.280Z,84.60
2022-12-25T17:21:48.337Z,84.70
2022-12-25T17:24:18.094Z,84.60
2022-12-25T17:26:45.288Z,84.60
2022-12-25T17:29:20.111Z,84.50
2022-12-25T17:31:52.673Z,84.40
2022-12-25T17:34:20.360Z,84.40
2022-12-25T17:36:49.161Z,84.40
2022-12-25T17:39:16.500Z,84.40
2022-12-25T17:41:44.049Z,84.40
2022-12-25T17:44:11.513Z,84.40
2022-12-25T17:46:46.297Z,84.50
2022-12-25T17:49:19.066Z,84.30
2022-12-25T17:51:49.758Z,84.40
2022-12-25T17:54:17.168Z,84.40
2022-12-25T17:56:50.428Z,84.30
2022-12-25T17:59:29.454Z,84.40
2022-12-25T18:01:57.328Z,84.50
2022-12-25T18:04:25.920Z,84.40
2022-12-25T18:07:12.907Z,84.30
2022-12-25T18:09:40.914Z,84.70
2022-12-25T18:12:17.349Z,84.60
2022-12-25T18:14:45.194Z,84.70
2022-12-25T18:17:12.594Z,84.70
2022-12-25T18:19:42.264Z,84.60
2022-12-25T18:22:16.056Z,84.60
2022-12-25T18:24:43.651Z,84.60
2022-12-25T18:27:13.627Z,84.50
2022-12-25T18:29:56.542Z,84.50
2022-12-25T18:32:28.111Z,84.40
2022-12-25T18:34:56.223Z,84.50
2022-12-25T18:37:23.849Z,84.60
2022-12-25T18:39:51.644Z,84.60
2022-12-25T18:42:38.317Z,84.60
2022-12-25T18:45:18.317Z,84.60
2022-12-25T18:47:51.181Z,84.50
2022-12-25T18:50:44.871Z,84.60
2022-12-25T18:53:12.675Z,84.60
2022-12-25T18:55:41.314Z,84.70
2022-12-25T18:58:16.813Z,84.70
2022-12-25T19:00:47.033Z,84.70
2022-12-25T19:03:25.735Z,84.60
2022-12-25T19:05:55.485Z,84.60
2022-12-25T19:08:25.620Z,84.70
2022-12-25T19:10:53.425Z,84.70
2022-12-25T19:13:26.048Z,84.60
2022-12-25T19:16:00.741Z,84.60
2022-12-25T19:18:30.278Z,84.60
2022-12-25T19:21:01.776Z,84.50
2022-12-25T19:23:29.337Z,84.40
2022-12-25T19:25:57.461Z,84.40
2022-12-25T19:28:30.027Z,84.40
2022-12-25T19:31:00.585Z,84.40
2022-12-25T19:33:28.085Z,84.30
2022-12-25T19:36:01.286Z,84.10
2022-12-25T19:38:31.267Z,84.30
2022-12-25T19:41:04.903Z,84.40
2022-12-25T19:43:38.080Z,84.40
2022-12-25T19:46:07.755Z,84.40
2022-12-25T19:48:40.660Z,84.60
2022-12-25T19:51:19.338Z,84.80
2022-12-25T19:53:48.193Z,84.80
2022-12-25T19:56:19.442Z,84.70
2022-12-25T19:58:47.533Z,84.90
2022-12-25T20:01:18.775Z,85.00
2022-12-25T20:03:48.153Z,85.00
2022-12-25T20:06:20.080Z,84.90
2022-12-25T20:08:53.896Z,85.10
2022-12-25T20:11:23.606Z,85.10
2022-12-25T20:13:53.518Z,85.20
2022-12-25T20:16:23.165Z,85.20
2022-12-25T20:19:00.240Z,85.30
2022-12-25T20:21:33.257Z,85.20
2022-12-25T20:24:01.410Z,85.20
2022-12-25T20:26:31.831Z,85.10
2022-12-25T20:29:04.888Z,85.20
2022-12-25T20:31:35.993Z,85.40
2022-12-25T20:34:09.193Z,85.40
2022-12-25T20:36:38.113Z,85.50
2022-12-25T20:39:12.023Z,85.40
2022-12-25T20:41:44.381Z,85.30
2022-12-25T20:44:17.016Z,85.40
2022-12-25T20:46:45.430Z,85.50
2022-12-25T20:49:15.538Z,85.60
2022-12-25T20:51:43.215Z,85.60
2022-12-25T20:54:16.077Z,85.70
2022-12-25T20:56:49.896Z,85.50
2022-12-25T20:59:17.641Z,85.50
2022-12-25T21:01:58.295Z,85.50
2022-12-25T21:04:25.880Z,85.60
2022-12-25T21:06:53.049Z,85.50
2022-12-25T21:09:41.417Z,85.60
2022-12-25T21:12:17.788Z,85.60
2022-12-25T21:14:46.184Z,85.70
2022-12-25T21:17:14.460Z,85.90
2022-12-25T21:19:41.546Z,85.90
2022-12-25T21:22:17.267Z,86.10
2022-12-25T21:24:52.186Z,86.10
2022-12-25T21:27:19.509Z,86.20
2022-12-25T21:29:46.648Z,86.20
2022-12-25T21:32:33.779Z,86.30
2022-12-25T21:35:00.765Z,86.40
2022-12-25T21:37:36.388Z,86.40
2022-12-25T21:40:03.521Z,86.40
2022-12-25T21:42:30.496Z,86.60
2022-12-25T21:45:02.735Z,86.50
2022-12-25T21:48:00.035Z,86.60
2022-12-25T21:50:39.261Z,86.50
2022-12-25T21:53:07.386Z,86.50
2022-12-25T21:56:12.241Z,86.50
2022-12-25T21:58:39.385Z,86.60
2022-12-25T22:01:06.479Z,86.80
2022-12-25T22:03:33.814Z,86.90
2022-12-25T22:06:21.813Z,86.80
2022-12-25T22:08:49.012Z,86.70
2022-12-25T22:11:34.592Z,86.90
2022-12-25T22:14:20.037Z,86.80
2022-12-25T22:17:26.865Z,86.80
2022-12-25T22:19:53.825Z,86.80
2022-12-25T22:22:23.490Z,86.80
2022-12-25T22:24:51.826Z,86.80
2022-12-25T22:27:21.015Z,86.70
2022-12-25T22:29:48.366Z,86.70
2022-12-25T22:32:16.793Z,86.80
2022-12-25T22:34:43.822Z,86.80
2022-12-25T22:37:16.048Z,86.70
2022-12-25T22:39:43.706Z,86.50
2022-12-25T22:42:11.827Z,86.50
2022-12-25T22:44:39.175Z,86.40
2022-12-25T22:47:06.183Z,86.60
2022-12-25T22:49:35.976Z,86.40
2022-12-25T22:52:03.477Z,86.40
2022-12-25T22:54:31.899Z,86.30
2022-12-25T22:57:00.163Z,86.50
2022-12-25T22:59:27.752Z,86.40
2022-12-25T23:01:55.222Z,86.50
2022-12-25T23:04:22.771Z,86.30
2022-12-25T23:06:50.755Z,86.50
2022-12-25T23:09:24.436Z,86.50
2022-12-25T23:11:51.890Z,86.40
2022-12-25T23:14:37.348Z,86.20
2022-12-25T23:17:04.842Z,86.30
2022-12-25T23:19:50.407Z,86.20
2022-12-25T23:22:35.872Z,86.30
2022-12-25T23:25:21.358Z,86.40
2022-12-25T23:27:48.305Z,86.40
2022-12-25T23:30:16.702Z,86.60
2022-12-25T23:32:44.457Z,86.60
2022-12-25T23:35:11.843Z,86.60
2022-12-25T23:37:38.715Z,86.50
2022-12-25T23:40:08.795Z,86.70
2022-12-25T23:42:35.763Z,86.60
2022-12-25T23:45:02.611Z,86.50
2022-12-25T23:47:29.542Z,86.50
2022-12-25T23:49:56.395Z,86.50
2022-12-25T23:52:23.238Z,86.50
2022-12-25T23:54:50.671Z,86.60
2022-12-25T23:57:17.511Z,86.50
2022-12-25T23:59:44.346Z,86.40
